createdAt,value
2022-07-29T00:00:07.655Z,7.97
2022-07-29T00:02:35.989Z,7.53
2022-07-29T00:05:06.726Z,7.97
2022-07-29T00:07:35.151Z,8.17
2022-07-29T00:10:03.323Z,7.43
2022-07-29T00:12:31.516Z,7.93
2022-07-29T00:15:00.442Z,7.80
2022-07-29T00:17:28.886Z,7.97
2022-07-29T00:19:57.304Z,8.53
2022-07-29T00:22:27.905Z,8.90
2022-07-29T00:25:01.761Z,7.97
2022-07-29T00:27:29.937Z,8.23
2022-07-29T00:29:58.029Z,8.37
2022-07-29T00:32:26.154Z,7.37
2022-07-29T00:35:11.907Z,8.10
2022-07-29T00:37:41.507Z,6.93
2022-07-29T00:40:10.718Z,7.37
2022-07-29T00:42:44.859Z,7.17
2022-07-29T00:45:14.472Z,7.43
2022-07-29T00:47:43.013Z,7.60
2022-07-29T00:50:13.393Z,8.70
2022-07-29T00:52:47.325Z,10.30
2022-07-29T00:55:17.100Z,9.73
2022-07-29T00:57:46.249Z,10.20
2022-07-29T01:00:18.400Z,10.30
2022-07-29T01:02:49.411Z,10.40
2022-07-29T01:05:20.291Z,10.63
2022-07-29T01:07:53.394Z,9.87
2022-07-29T01:10:23.458Z,10.97
2022-07-29T01:12:53.965Z,10.03
2022-07-29T01:15:23.128Z,10.27
2022-07-29T01:17:59.355Z,9.90
2022-07-29T01:20:33.946Z,9.83
2022-07-29T01:23:30.128Z,10.53
2022-07-29T01:26:15.116Z,10.93
2022-07-29T01:28:58.895Z,10.30
2022-07-29T01:31:36.632Z,10.00
2022-07-29T01:34:13.664Z,10.43
2022-07-29T01:36:47.815Z,10.07
2022-07-29T01:39:23.259Z,9.97
2022-07-29T01:41:58.803Z,9.63
2022-07-29T01:44:35.186Z,10.20
2022-07-29T01:47:12.890Z,11.03
2022-07-29T01:49:51.136Z,11.50
2022-07-29T01:52:25.824Z,10.63
2022-07-29T01:54:57.877Z,9.87
2022-07-29T01:57:29.939Z,10.20
2022-07-29T02:00:01.849Z,9.93
2022-07-29T02:02:32.174Z,10.10
2022-07-29T02:05:02.631Z,10.07
2022-07-29T02:07:33.604Z,9.77
2022-07-29T02:10:05.020Z,9.63
2022-07-29T02:12:34.865Z,10.57
2022-07-29T02:15:06.776Z,10.23
2022-07-29T02:17:41.119Z,10.53
2022-07-29T02:20:11.422Z,10.97
2022-07-29T02:22:41.633Z,10.67
2022-07-29T02:25:14.062Z,10.90
2022-07-29T02:27:44.987Z,10.47
2022-07-29T02:30:15.472Z,10.40
2022-07-29T02:32:47.312Z,10.77
2022-07-29T02:35:17.295Z,9.47
2022-07-29T02:38:08.027Z,9.47
2022-07-29T02:40:42.133Z,11.07
2022-07-29T02:43:11.446Z,9.53
2022-07-29T02:45:41.184Z,10.87
2022-07-29T02:48:16.325Z,10.90
2022-07-29T02:50:51.298Z,10.30
2022-07-29T02:53:22.824Z,11.13
2022-07-29T02:55:57.905Z,10.63
2022-07-29T02:58:30.673Z,10.17
2022-07-29T03:01:04.119Z,10.27
2022-07-29T03:03:39.530Z,10.80
2022-07-29T03:06:09.553Z,10.27
2022-07-29T03:08:57.617Z,11.13
2022-07-29T03:11:40.072Z,11.00
2022-07-29T03:14:16.304Z,11.73
2022-07-29T03:16:46.260Z,10.20
2022-07-29T03:19:15.129Z,10.57
2022-07-29T03:21:43.374Z,11.27
2022-07-29T03:24:11.526Z,10.07
2022-07-29T03:26:39.808Z,10.00
2022-07-29T03:29:08.051Z,8.53
2022-07-29T03:31:41.899Z,8.33
2022-07-29T03:34:14.641Z,9.60
2022-07-29T03:36:43.202Z,9.73
2022-07-29T03:39:13.033Z,8.77
2022-07-29T03:41:42.961Z,8.60
2022-07-29T03:44:13.575Z,9.80
2022-07-29T03:46:51.307Z,9.50
2022-07-29T03:49:22.780Z,8.80
2022-07-29T03:51:51.108Z,8.97
2022-07-29T03:54:19.734Z,8.67
2022-07-29T03:56:51.350Z,8.47
2022-07-29T03:59:21.047Z,9.37
2022-07-29T04:01:50.267Z,9.30
2022-07-29T04:04:20.465Z,10.60
2022-07-29T04:06:49.271Z,10.87
2022-07-29T04:09:17.566Z,10.33
2022-07-29T04:12:02.523Z,10.83
2022-07-29T04:14:38.229Z,10.33
2022-07-29T04:17:07.333Z,11.53
2022-07-29T04:19:37.225Z,11.20
2022-07-29T04:22:05.579Z,11.03
2022-07-29T04:24:36.347Z,11.43
2022-07-29T04:27:04.988Z,11.67
2022-07-29T04:29:33.226Z,10.57
2022-07-29T04:32:01.410Z,10.93
2022-07-29T04:34:29.626Z,10.47
2022-07-29T04:36:59.511Z,10.00
2022-07-29T04:39:29.546Z,9.97
2022-07-29T04:41:59.106Z,9.27
2022-07-29T04:44:28.731Z,9.30
2022-07-29T04:46:58.182Z,9.07
2022-07-29T04:49:26.632Z,8.30
2022-07-29T04:51:54.998Z,8.73
2022-07-29T04:54:25.512Z,7.40
2022-07-29T04:56:54.635Z,7.90
2022-07-29T04:59:22.947Z,6.70
2022-07-29T05:01:51.535Z,7.50
2022-07-29T05:04:20.473Z,6.93
2022-07-29T05:06:49.080Z,7.97
2022-07-29T05:09:17.237Z,8.00
2022-07-29T05:11:47.158Z,7.53
2022-07-29T05:14:16.002Z,7.27
2022-07-29T05:16:44.553Z,7.47
2022-07-29T05:19:14.507Z,8.30
2022-07-29T05:21:43.572Z,7.50
2022-07-29T05:24:11.821Z,7.80
2022-07-29T05:26:40.264Z,7.70
2022-07-29T05:29:42.983Z,6.82
2022-07-29T05:31:58.628Z,6.88
2022-07-29T05:34:27.264Z,7.60
2022-07-29T05:36:55.705Z,8.18
2022-07-29T05:39:47.198Z,7.40
2022-07-29T05:42:12.417Z,7.03
2022-07-29T05:44:42.347Z,7.43
2022-07-29T05:47:10.857Z,7.32
2022-07-29T05:49:39.632Z,6.57
2022-07-29T05:52:15.376Z,6.27
2022-07-29T05:54:44.584Z,6.50
2022-07-29T05:57:18.204Z,6.07
2022-07-29T05:59:50.651Z,6.53
2022-07-29T06:02:18.981Z,6.57
2022-07-29T06:04:47.279Z,5.80
2022-07-29T06:07:17.288Z,6.20
2022-07-29T06:09:45.763Z,5.73
2022-07-29T06:12:14.021Z,6.33
2022-07-29T06:14:42.389Z,5.60
2022-07-29T06:17:12.807Z,5.00
2022-07-29T06:19:41.365Z,5.23
2022-07-29T06:22:10.628Z,5.13
2022-07-29T06:24:42.559Z,6.07
2022-07-29T06:27:10.987Z,6.13
2022-07-29T06:29:39.197Z,5.83
2022-07-29T06:32:08.349Z,5.60
2022-07-29T06:34:38.274Z,5.43
2022-07-29T06:37:15.662Z,5.20
2022-07-29T06:39:44.311Z,5.57
2022-07-29T06:42:12.639Z,5.87
2022-07-29T06:44:40.787Z,5.60
2022-07-29T06:47:10.754Z,6.10
2022-07-29T06:49:40.321Z,5.83
2022-07-29T06:52:08.781Z,5.70
2022-07-29T06:54:37.191Z,5.70
2022-07-29T06:57:05.555Z,5.63
2022-07-29T06:59:35.946Z,6.17
2022-07-29T07:02:04.699Z,5.57
2022-07-29T07:04:33.514Z,5.60
2022-07-29T07:07:03.425Z,5.87
2022-07-29T07:09:54.730Z,6.20
2022-07-29T07:12:22.979Z,5.47
2022-07-29T07:14:51.226Z,5.80
2022-07-29T07:17:19.574Z,6.00
2022-07-29T07:19:47.857Z,5.30
2022-07-29T07:22:17.519Z,5.40
2022-07-29T07:24:45.743Z,5.60
2022-07-29T07:27:14.256Z,5.13
2022-07-29T07:29:44.258Z,5.30
2022-07-29T07:32:15.599Z,5.47
2022-07-29T07:34:45.930Z,5.10
2022-07-29T07:37:20.456Z,4.97
2022-07-29T07:39:48.991Z,4.77
2022-07-29T07:42:17.464Z,4.60
2022-07-29T07:45:12.244Z,4.37
2022-07-29T07:47:35.121Z,5.00
2022-07-29T07:50:03.362Z,4.90
2022-07-29T07:52:32.934Z,4.90
2022-07-29T07:55:01.297Z,5.23
2022-07-29T07:57:30.569Z,4.50
2022-07-29T07:59:58.730Z,4.77
2022-07-29T08:02:27.001Z,4.40
2022-07-29T08:04:57.834Z,4.20
2022-07-29T08:07:35.190Z,4.53
2022-07-29T08:10:03.505Z,4.47
2022-07-29T08:12:38.075Z,4.20
2022-07-29T08:15:08.712Z,4.43
2022-07-29T08:17:37.098Z,4.10
2022-07-29T08:20:06.054Z,4.03
2022-07-29T08:22:39.560Z,5.00
2022-07-29T08:25:08.845Z,4.03
2022-07-29T08:27:44.771Z,4.70
2022-07-29T08:30:13.674Z,4.20
2022-07-29T08:32:57.361Z,4.50
2022-07-29T08:35:26.713Z,4.30
2022-07-29T08:37:58.021Z,4.33
2022-07-29T08:40:30.766Z,3.97
2022-07-29T08:43:02.086Z,4.30
2022-07-29T08:45:31.830Z,4.40
2022-07-29T08:48:00.908Z,4.30
2022-07-29T08:50:29.155Z,3.93
2022-07-29T08:53:00.071Z,3.83
2022-07-29T08:55:29.131Z,3.80
2022-07-29T08:57:57.810Z,3.67
2022-07-29T09:00:28.517Z,3.70
2022-07-29T09:03:01.162Z,3.37
2022-07-29T09:05:30.930Z,3.33
2022-07-29T09:08:01.740Z,3.53
2022-07-29T09:10:32.985Z,3.27
2022-07-29T09:13:01.390Z,3.50
2022-07-29T09:15:29.852Z,3.70
2022-07-29T09:17:59.594Z,3.47
2022-07-29T09:20:51.901Z,3.70
2022-07-29T09:23:23.424Z,3.90
2022-07-29T09:25:53.260Z,3.50
2022-07-29T09:28:21.585Z,3.60
2022-07-29T09:30:54.350Z,3.80
2022-07-29T09:33:23.642Z,3.55
2022-07-29T09:36:06.029Z,3.92
2022-07-29T09:38:36.450Z,3.60
2022-07-29T09:41:09.112Z,3.63
2022-07-29T09:43:37.321Z,3.90
2022-07-29T09:46:15.903Z,4.18
2022-07-29T09:48:44.558Z,4.10
2022-07-29T09:51:28.432Z,3.90
2022-07-29T09:54:24.325Z,6.65
2022-07-29T09:56:53.106Z,4.90
2022-07-29T09:59:25.364Z,4.27
2022-07-29T10:01:54.028Z,3.60
2022-07-29T10:04:24.618Z,4.53
2022-07-29T10:07:04.491Z,4.10
2022-07-29T10:09:36.347Z,4.50
2022-07-29T10:12:14.833Z,3.95
2022-07-29T10:14:44.305Z,4.55
2022-07-29T10:17:13.052Z,4.50
2022-07-29T10:19:43.493Z,3.70
2022-07-29T10:22:13.137Z,4.30
2022-07-29T10:24:42.934Z,4.10
2022-07-29T10:27:13.576Z,4.55
2022-07-29T10:29:41.814Z,4.65
2022-07-29T10:32:33.889Z,4.25
2022-07-29T10:35:17.992Z,3.97
2022-07-29T10:38:03.353Z,4.53
2022-07-29T10:41:43.669Z,3.85
2022-07-29T10:44:33.564Z,3.88
2022-07-29T10:47:23.644Z,4.80
2022-07-29T10:50:01.423Z,4.30
2022-07-29T10:52:55.559Z,3.40
2022-07-29T10:59:38.977Z,4.15
2022-07-29T11:02:52.389Z,4.07
2022-07-29T11:05:22.273Z,3.67
2022-07-29T11:08:27.632Z,3.80
2022-07-29T11:11:43.942Z,3.80
2022-07-29T11:14:26.405Z,4.57
2022-07-29T11:17:09.175Z,4.82
2022-07-29T11:19:51.205Z,4.18
2022-07-29T11:22:34.985Z,3.70
2022-07-29T11:25:17.013Z,4.15
2022-07-29T11:27:46.574Z,4.07
2022-07-29T11:30:16.577Z,4.07
2022-07-29T11:32:54.165Z,3.78
2022-07-29T11:35:39.849Z,4.10
2022-07-29T11:38:29.164Z,3.72
2022-07-29T11:41:25.529Z,3.70
2022-07-29T11:43:55.410Z,4.32
2022-07-29T11:46:46.863Z,4.13
2022-07-29T11:49:31.551Z,4.75
2022-07-29T11:52:03.915Z,4.43
2022-07-29T11:54:38.819Z,4.50
2022-07-29T11:57:29.538Z,4.60
2022-07-29T12:00:14.550Z,4.05
2022-07-29T12:03:07.764Z,4.22
2022-07-29T12:05:40.081Z,4.40
2022-07-29T12:08:20.204Z,5.38
2022-07-29T12:10:49.841Z,5.10
2022-07-29T12:13:20.429Z,5.43
2022-07-29T12:16:00.188Z,5.25
2022-07-29T12:18:29.110Z,4.40
2022-07-29T12:21:04.938Z,4.40
2022-07-29T12:23:34.859Z,4.85
2022-07-29T12:26:07.493Z,4.68
2022-07-29T12:28:40.546Z,6.75
2022-07-29T12:31:15.221Z,5.50
2022-07-29T12:34:03.880Z,5.20
2022-07-29T12:36:35.973Z,5.22
2022-07-29T12:39:04.849Z,5.22
2022-07-29T12:41:33.688Z,5.60
2022-07-29T12:44:04.397Z,5.68
2022-07-29T12:46:32.702Z,5.47
2022-07-29T12:49:01.145Z,5.05
2022-07-29T12:51:35.675Z,4.65
2022-07-29T12:54:12.507Z,5.00
2022-07-29T12:56:43.143Z,4.60
2022-07-29T12:59:17.891Z,5.28
2022-07-29T13:02:05.229Z,5.10
2022-07-29T13:04:42.076Z,5.20
2022-07-29T13:07:13.054Z,5.50
2022-07-29T13:09:45.268Z,5.10
2022-07-29T13:12:15.205Z,5.57
2022-07-29T13:14:44.737Z,5.50
2022-07-29T13:17:16.685Z,4.75
2022-07-29T13:19:46.720Z,5.15
2022-07-29T13:22:17.778Z,5.30
2022-07-29T13:24:54.477Z,5.45
2022-07-29T13:27:24.977Z,5.32
2022-07-29T13:30:26.229Z,5.32
2022-07-29T13:32:56.189Z,7.03
2022-07-29T13:35:24.583Z,11.82
2022-07-29T13:37:54.451Z,5.40
2022-07-29T13:40:22.748Z,5.32
2022-07-29T13:42:51.353Z,5.32
2022-07-29T13:45:20.194Z,5.55
2022-07-29T13:47:49.364Z,5.30
2022-07-29T13:50:20.767Z,5.88
2022-07-29T13:52:49.688Z,5.10
2022-07-29T13:55:19.709Z,10.38
2022-07-29T13:58:04.572Z,9.80
2022-07-29T14:00:43.137Z,7.20
2022-07-29T14:03:11.536Z,5.80
2022-07-29T14:05:41.942Z,5.20
2022-07-29T14:08:23.622Z,5.97
2022-07-29T14:10:53.887Z,5.07
2022-07-29T14:13:47.323Z,5.30
2022-07-29T14:16:16.590Z,4.70
2022-07-29T14:18:44.986Z,5.07
2022-07-29T14:21:13.261Z,4.70
2022-07-29T14:23:42.966Z,4.90
2022-07-29T14:26:26.523Z,5.18
2022-07-29T14:29:06.523Z,5.22
2022-07-29T14:31:38.890Z,4.97
2022-07-29T14:34:18.071Z,5.30
2022-07-29T14:36:49.225Z,4.88
2022-07-29T14:39:48.574Z,4.95
2022-07-29T14:42:25.749Z,4.72
2022-07-29T14:44:59.095Z,4.90
2022-07-29T14:47:27.467Z,4.95
2022-07-29T14:49:55.857Z,4.93
2022-07-29T14:52:24.309Z,4.90
2022-07-29T14:54:52.761Z,4.88
2022-07-29T14:57:22.395Z,4.57
2022-07-29T14:59:50.693Z,5.03
2022-07-29T15:02:19.025Z,4.88
2022-07-29T15:04:51.824Z,4.90
2022-07-29T15:07:20.234Z,5.22
2022-07-29T15:09:50.011Z,9.13
2022-07-29T15:12:18.737Z,5.75
2022-07-29T15:14:48.434Z,7.88
2022-07-29T15:17:16.808Z,12.32
2022-07-29T15:19:45.292Z,5.82
2022-07-29T15:22:13.663Z,5.57
2022-07-29T15:24:42.022Z,5.05
2022-07-29T15:27:15.008Z,5.40
2022-07-29T15:29:43.692Z,5.60
2022-07-29T15:32:14.028Z,5.30
2022-07-29T15:34:42.564Z,10.75
2022-07-29T15:37:11.995Z,7.32
2022-07-29T15:39:40.249Z,5.60
2022-07-29T15:42:09.027Z,5.68
2022-07-29T15:44:39.420Z,5.50
2022-07-29T15:47:08.390Z,5.72
2022-07-29T15:49:47.828Z,5.18
2022-07-29T15:52:25.094Z,5.30
2022-07-29T15:54:56.042Z,5.20
2022-07-29T15:57:25.152Z,5.57
2022-07-29T15:59:57.846Z,5.38
2022-07-29T16:02:26.330Z,5.10
2022-07-29T16:04:56.443Z,4.50
2022-07-29T16:07:25.423Z,4.90
2022-07-29T16:09:59.927Z,4.90
2022-07-29T16:12:28.041Z,4.80
2022-07-29T16:14:56.384Z,5.40
2022-07-29T16:17:24.890Z,5.15
2022-07-29T16:19:53.516Z,5.00
2022-07-29T16:22:26.365Z,9.07
2022-07-29T16:24:57.113Z,9.68
2022-07-29T16:27:35.550Z,6.75
2022-07-29T16:30:10.300Z,5.50
2022-07-29T16:32:39.902Z,5.40
2022-07-29T16:35:10.388Z,4.90
2022-07-29T16:37:40.154Z,5.10
2022-07-29T16:40:11.826Z,12.93
2022-07-29T16:42:47.729Z,6.75
2022-07-29T16:45:21.159Z,5.50
2022-07-29T16:47:50.083Z,5.72
2022-07-29T16:50:18.424Z,5.03
2022-07-29T16:52:48.240Z,6.05
2022-07-29T16:55:16.499Z,11.35
2022-07-29T16:57:45.584Z,11.98
2022-07-29T17:00:15.323Z,5.40
2022-07-29T17:02:44.409Z,5.03
2022-07-29T17:05:13.584Z,5.32
2022-07-29T17:07:42.903Z,4.65
2022-07-29T17:10:12.912Z,5.45
2022-07-29T17:12:43.378Z,6.70
2022-07-29T17:15:14.699Z,5.72
2022-07-29T17:17:55.305Z,5.67
2022-07-29T17:20:26.805Z,4.95
2022-07-29T17:22:55.101Z,5.05
2022-07-29T17:25:26.206Z,8.68
2022-07-29T17:28:00.543Z,7.63
2022-07-29T17:30:29.557Z,9.55
2022-07-29T17:32:57.828Z,5.10
2022-07-29T17:35:43.685Z,5.07
2022-07-29T17:38:12.095Z,5.40
2022-07-29T17:40:42.182Z,5.18
2022-07-29T17:43:10.586Z,5.93
2022-07-29T17:45:49.334Z,5.70
2022-07-29T17:48:18.964Z,5.15
2022-07-29T17:50:47.870Z,6.13
2022-07-29T17:53:16.852Z,5.47
2022-07-29T17:55:47.800Z,5.28
2022-07-29T17:58:17.454Z,4.53
2022-07-29T18:00:46.096Z,7.13
2022-07-29T18:03:14.570Z,5.50
2022-07-29T18:05:43.096Z,8.57
2022-07-29T18:08:11.686Z,4.70
2022-07-29T18:10:41.427Z,4.97
2022-07-29T18:13:12.681Z,4.60
2022-07-29T18:15:42.728Z,4.73
2022-07-29T18:18:10.999Z,4.77
2022-07-29T18:20:46.386Z,5.00
2022-07-29T18:23:15.582Z,5.13
2022-07-29T18:25:44.217Z,4.60
2022-07-29T18:28:14.159Z,4.55
2022-07-29T18:30:43.429Z,4.80
2022-07-29T18:33:22.867Z,5.03
2022-07-29T18:36:11.491Z,6.45
2022-07-29T18:38:54.114Z,7.63
2022-07-29T18:41:32.215Z,5.70
2022-07-29T18:44:48.933Z,4.77
2022-07-29T18:47:35.334Z,5.00
2022-07-29T18:50:09.400Z,4.50
2022-07-29T18:52:55.293Z,4.80
2022-07-29T18:55:28.307Z,4.50
2022-07-29T18:58:51.157Z,4.30
2022-07-29T19:01:31.893Z,4.40
2022-07-29T19:04:02.023Z,5.03
2022-07-29T19:06:33.684Z,5.53
2022-07-29T19:09:12.312Z,4.73
2022-07-29T19:11:42.992Z,5.03
2022-07-29T19:14:15.521Z,4.50
2022-07-29T19:16:43.839Z,4.63
2022-07-29T19:19:14.592Z,4.90
2022-07-29T19:21:42.820Z,4.83
2022-07-29T19:24:15.467Z,4.30
2022-07-29T19:26:49.931Z,4.50
2022-07-29T19:29:18.292Z,4.22
2022-07-29T19:31:55.843Z,4.63
2022-07-29T19:34:35.760Z,4.70
2022-07-29T19:37:03.966Z,4.53
2022-07-29T19:39:35.790Z,4.67
2022-07-29T19:45:32.553Z,4.13
2022-07-29T19:48:01.836Z,4.27
2022-07-29T19:50:31.962Z,4.50
2022-07-29T19:53:01.009Z,5.10
2022-07-29T19:55:29.619Z,4.57
2022-07-29T19:57:59.097Z,4.37
2022-07-29T20:00:28.534Z,3.80
2022-07-29T20:03:27.358Z,4.33
2022-07-29T20:06:00.950Z,4.40
2022-07-29T20:08:29.409Z,4.43
2022-07-29T20:11:00.793Z,4.40
2022-07-29T20:13:31.426Z,4.60
2022-07-29T20:15:59.872Z,4.40
2022-07-29T20:18:28.200Z,4.57
2022-07-29T20:21:00.388Z,4.00
2022-07-29T20:23:28.815Z,4.67
2022-07-29T20:26:09.771Z,4.63
2022-07-29T20:28:40.343Z,4.73
2022-07-29T20:31:11.849Z,4.73
2022-07-29T20:33:40.208Z,4.80
2022-07-29T20:36:13.583Z,4.53
2022-07-29T20:38:56.784Z,3.97
2022-07-29T20:41:25.148Z,4.53
2022-07-29T20:44:06.704Z,4.30
2022-07-29T20:46:41.299Z,4.57
2022-07-29T20:49:16.463Z,4.57
2022-07-29T20:51:49.010Z,4.77
2022-07-29T20:54:17.195Z,4.30
2022-07-29T20:56:45.695Z,4.40
2022-07-29T20:59:13.908Z,4.20
2022-07-29T21:01:43.770Z,4.40
2022-07-29T21:04:12.004Z,4.20
2022-07-29T21:06:42.797Z,3.90
2022-07-29T21:09:24.867Z,4.30
2022-07-29T21:11:53.373Z,4.30
2022-07-29T21:14:42.022Z,4.60
2022-07-29T21:17:10.664Z,4.13
2022-07-29T21:19:42.898Z,4.47
2022-07-29T21:22:15.419Z,4.13
2022-07-29T21:25:13.085Z,4.40
2022-07-29T21:28:11.892Z,4.40
2022-07-29T21:30:40.557Z,4.33
2022-07-29T21:33:08.969Z,4.50
2022-07-29T21:36:02.048Z,4.30
2022-07-29T21:38:39.409Z,4.10
2022-07-29T21:42:18.320Z,4.30
2022-07-29T21:44:48.368Z,4.53
2022-07-29T21:47:17.119Z,4.23
2022-07-29T21:49:50.721Z,4.27
2022-07-29T21:52:51.875Z,4.13
2022-07-29T21:55:20.265Z,4.53
2022-07-29T22:01:55.732Z,4.27
2022-07-29T22:08:19.623Z,4.10
2022-07-29T22:10:48.123Z,3.90
2022-07-29T22:13:16.720Z,4.23
2022-07-29T22:15:47.177Z,3.97
2022-07-29T22:18:20.399Z,3.90
2022-07-29T22:20:51.241Z,4.00
2022-07-29T22:23:21.676Z,4.10
2022-07-29T22:25:50.002Z,3.87
2022-07-29T22:28:18.315Z,3.67
2022-07-29T22:30:46.738Z,3.90
2022-07-29T22:33:29.739Z,3.90
2022-07-29T22:35:57.944Z,3.53
2022-07-29T22:38:28.039Z,3.60
2022-07-29T22:41:00.499Z,3.87
2022-07-29T22:43:28.997Z,4.00
2022-07-29T22:45:57.576Z,3.90
2022-07-29T22:48:27.391Z,3.87
2022-07-29T22:51:55.796Z,3.97
2022-07-29T22:54:40.478Z,3.50
2022-07-29T22:57:21.384Z,4.10
2022-07-29T23:00:05.401Z,4.07
2022-07-29T23:02:37.570Z,3.80
2022-07-29T23:05:22.508Z,3.63
2022-07-29T23:07:50.781Z,3.20
2022-07-29T23:10:19.367Z,3.10
2022-07-29T23:13:01.243Z,3.50
2022-07-29T23:15:31.938Z,3.60
2022-07-29T23:18:00.932Z,3.80
2022-07-29T23:20:31.065Z,3.73
2022-07-29T23:22:59.537Z,3.47
2022-07-29T23:25:27.913Z,3.43
2022-07-29T23:27:57.329Z,3.50
2022-07-29T23:30:26.137Z,3.43
2022-07-29T23:32:54.916Z,3.67
2022-07-29T23:35:23.642Z,3.53
2022-07-29T23:37:53.423Z,3.30
2022-07-29T23:40:21.711Z,3.73
2022-07-29T23:42:50.143Z,3.47
2022-07-29T23:45:19.653Z,3.53
2022-07-29T23:47:50.040Z,3.43
2022-07-29T23:50:18.508Z,3.50
2022-07-29T23:52:50.455Z,3.10
2022-07-29T23:55:36.578Z,3.93
2022-07-29T23:58:07.336Z,4.00
